sensor_id;sensor_type;location;lat;lon;timestamp;pressure;altitude;pressure_sealevel;temperature;humidity
9822;BME280;4950;46.042;14.472;2023-05-07T00:01:01;98004.56;;;17.17;74.82
9822;BME280;4950;46.042;14.472;2023-05-07T00:03:28;98003.00;;;17.09;75.15
9822;BME280;4950;46.042;14.472;2023-05-07T00:05:55;98010.91;;;17.03;75.49
9822;BME280;4950;46.042;14.472;2023-05-07T00:08:23;98013.16;;;16.99;75.92
9822;BME280;4950;46.042;14.472;2023-05-07T00:10:49;98019.47;;;16.91;76.56
9822;BME280;4950;46.042;14.472;2023-05-07T00:13:16;98022.50;;;16.88;76.33
9822;BME280;4950;46.042;14.472;2023-05-07T00:15:43;98021.69;;;16.81;76.77
9822;BME280;4950;46.042;14.472;2023-05-07T00:18:09;98020.50;;;16.77;77.06
9822;BME280;4950;46.042;14.472;2023-05-07T00:20:36;98021.53;;;16.76;77.11
9822;BME280;4950;46.042;14.472;2023-05-07T00:23:02;98019.31;;;16.73;77.16
9822;BME280;4950;46.042;14.472;2023-05-07T00:25:30;98012.69;;;16.70;76.97
9822;BME280;4950;46.042;14.472;2023-05-07T00:27:57;97999.19;;;16.67;77.49
9822;BME280;4950;46.042;14.472;2023-05-07T00:30:28;97994.78;;;16.61;77.98
9822;BME280;4950;46.042;14.472;2023-05-07T00:32:54;98000.03;;;16.61;77.83
9822;BME280;4950;46.042;14.472;2023-05-07T00:35:21;97995.00;;;16.59;77.83
9822;BME280;4950;46.042;14.472;2023-05-07T00:37:47;97997.63;;;16.59;77.99
9822;BME280;4950;46.042;14.472;2023-05-07T00:40:14;97993.41;;;16.58;78.21
9822;BME280;4950;46.042;14.472;2023-05-07T00:42:42;97988.78;;;16.53;77.98
9822;BME280;4950;46.042;14.472;2023-05-07T00:45:12;97991.59;;;16.52;78.12
9822;BME280;4950;46.042;14.472;2023-05-07T00:47:39;97996.25;;;16.50;78.43
9822;BME280;4950;46.042;14.472;2023-05-07T00:50:07;98002.53;;;16.49;78.50
9822;BME280;4950;46.042;14.472;2023-05-07T00:52:34;97994.91;;;16.41;78.43
9822;BME280;4950;46.042;14.472;2023-05-07T00:55:04;97994.91;;;16.41;78.30
9822;BME280;4950;46.042;14.472;2023-05-07T00:57:33;97989.47;;;16.35;78.63
9822;BME280;4950;46.042;14.472;2023-05-07T01:00:04;97996.53;;;16.35;78.61
9822;BME280;4950;46.042;14.472;2023-05-07T01:02:31;97988.91;;;16.27;78.27
9822;BME280;4950;46.042;14.472;2023-05-07T01:04:58;97982.28;;;16.17;78.90
9822;BME280;4950;46.042;14.472;2023-05-07T01:07:26;97985.75;;;16.05;78.68
9822;BME280;4950;46.042;14.472;2023-05-07T01:09:53;97989.41;;;15.97;78.75
9822;BME280;4950;46.042;14.472;2023-05-07T01:12:20;97991.41;;;15.95;78.95
9822;BME280;4950;46.042;14.472;2023-05-07T01:14:47;97987.81;;;15.96;78.73
9822;BME280;4950;46.042;14.472;2023-05-07T01:17:17;97985.00;;;15.97;78.72
9822;BME280;4950;46.042;14.472;2023-05-07T01:19:43;97991.41;;;15.95;78.50
9822;BME280;4950;46.042;14.472;2023-05-07T01:22:10;97982.16;;;15.92;79.49
9822;BME280;4950;46.042;14.472;2023-05-07T01:24:39;97988.22;;;15.86;79.10
9822;BME280;4950;46.042;14.472;2023-05-07T01:27:06;97995.25;;;15.86;79.07
9822;BME280;4950;46.042;14.472;2023-05-07T01:29:32;97996.31;;;15.78;79.27
9822;BME280;4950;46.042;14.472;2023-05-07T01:32:00;97985.44;;;15.74;79.23
9822;BME280;4950;46.042;14.472;2023-05-07T01:34:30;97991.03;;;15.71;79.42
9822;BME280;4950;46.042;14.472;2023-05-07T01:36:58;97983.63;;;15.68;79.32
9822;BME280;4950;46.042;14.472;2023-05-07T01:39:27;97985.84;;;15.65;79.93
9822;BME280;4950;46.042;14.472;2023-05-07T01:41:56;97992.06;;;15.64;80.18
9822;BME280;4950;46.042;14.472;2023-05-07T01:44:23;97994.88;;;15.62;79.89
9822;BME280;4950;46.042;14.472;2023-05-07T01:46:50;97994.69;;;15.57;79.76
9822;BME280;4950;46.042;14.472;2023-05-07T01:49:17;97990.66;;;15.48;80.22
9822;BME280;4950;46.042;14.472;2023-05-07T01:51:44;97995.50;;;15.44;80.13
9822;BME280;4950;46.042;14.472;2023-05-07T01:54:11;97994.69;;;15.44;80.31
9822;BME280;4950;46.042;14.472;2023-05-07T01:56:38;97992.28;;;15.42;80.11
9822;BME280;4950;46.042;14.472;2023-05-07T01:59:06;97989.47;;;15.37;80.40
9822;BME280;4950;46.042;14.472;2023-05-07T02:01:32;97991.47;;;15.35;80.45
9822;BME280;4950;46.042;14.472;2023-05-07T02:03:59;97991.69;;;15.33;80.82
9822;BME280;4950;46.042;14.472;2023-05-07T02:06:25;97988.06;;;15.28;80.85
9822;BME280;4950;46.042;14.472;2023-05-07T02:08:52;97990.28;;;15.24;81.21
9822;BME280;4950;46.042;14.472;2023-05-07T02:11:18;97993.50;;;15.26;81.20
9822;BME280;4950;46.042;14.472;2023-05-07T02:13:45;97994.50;;;15.25;80.74
9822;BME280;4950;46.042;14.472;2023-05-07T02:16:13;97992.09;;;15.24;80.97
9822;BME280;4950;46.042;14.472;2023-05-07T02:18:40;97994.13;;;15.22;81.12
9822;BME280;4950;46.042;14.472;2023-05-07T02:21:06;97992.69;;;15.19;81.09
9822;BME280;4950;46.042;14.472;2023-05-07T02:23:33;97993.28;;;15.14;81.16
9822;BME280;4950;46.042;14.472;2023-05-07T02:25:59;97985.44;;;15.14;80.79
9822;BME280;4950;46.042;14.472;2023-05-07T02:28:26;97986.66;;;15.12;80.86
9822;BME280;4950;46.042;14.472;2023-05-07T02:30:52;97995.50;;;15.04;80.85
9822;BME280;4950;46.042;14.472;2023-05-07T02:33:21;97985.84;;;14.98;81.06
9822;BME280;4950;46.042;14.472;2023-05-07T02:35:47;97985.25;;;14.96;81.22
9822;BME280;4950;46.042;14.472;2023-05-07T02:38:14;97988.66;;;14.96;81.29
9822;BME280;4950;46.042;14.472;2023-05-07T02:40:40;97992.69;;;14.92;81.25
9822;BME280;4950;46.042;14.472;2023-05-07T02:43:08;97993.06;;;14.89;81.30
9822;BME280;4950;46.042;14.472;2023-05-07T02:45:34;97987.22;;;14.87;81.69
9822;BME280;4950;46.042;14.472;2023-05-07T02:48:03;97990.03;;;14.86;81.51
9822;BME280;4950;46.042;14.472;2023-05-07T02:50:32;97990.63;;;14.81;81.52
9822;BME280;4950;46.042;14.472;2023-05-07T02:52:58;97999.88;;;14.77;81.48
9822;BME280;4950;46.042;14.472;2023-05-07T02:55:25;98003.47;;;14.69;81.97
9822;BME280;4950;46.042;14.472;2023-05-07T02:57:51;97996.25;;;14.71;82.30
9822;BME280;4950;46.042;14.472;2023-05-07T03:00:20;97997.84;;;14.72;81.92
9822;BME280;4950;46.042;14.472;2023-05-07T03:02:47;97993.81;;;14.70;81.87
9822;BME280;4950;46.042;14.472;2023-05-07T03:05:13;98001.06;;;14.68;82.20
9822;BME280;4950;46.042;14.472;2023-05-07T03:07:41;97989.41;;;14.64;82.30
9822;BME280;4950;46.042;14.472;2023-05-07T03:10:10;97990.97;;;14.58;82.19
9822;BME280;4950;46.042;14.472;2023-05-07T03:12:37;97991.59;;;14.60;82.17
9822;BME280;4950;46.042;14.472;2023-05-07T03:15:04;97994.41;;;14.58;82.22
9822;BME280;4950;46.042;14.472;2023-05-07T03:17:31;97994.41;;;14.58;82.14
9822;BME280;4950;46.042;14.472;2023-05-07T03:19:58;97992.34;;;14.54;81.75
9822;BME280;4950;46.042;14.472;2023-05-07T03:22:24;97989.13;;;14.52;82.17
9822;BME280;4950;46.042;14.472;2023-05-07T03:24:53;97992.72;;;14.51;82.42
9822;BME280;4950;46.042;14.472;2023-05-07T03:27:19;97996.56;;;14.48;82.64
9822;BME280;4950;46.042;14.472;2023-05-07T03:29:46;97998.38;;;14.48;82.38
9822;BME280;4950;46.042;14.472;2023-05-07T03:32:13;97999.75;;;14.44;82.39
9822;BME280;4950;46.042;14.472;2023-05-07T03:34:39;98000.75;;;14.42;82.49
9822;BME280;4950;46.042;14.472;2023-05-07T03:37:06;98002.94;;;14.39;82.24
9822;BME280;4950;46.042;14.472;2023-05-07T03:39:32;98006.94;;;14.35;82.42
9822;BME280;4950;46.042;14.472;2023-05-07T03:42:00;97999.31;;;14.33;82.49
9822;BME280;4950;46.042;14.472;2023-05-07T03:44:27;98000.09;;;14.27;82.59
9822;BME280;4950;46.042;14.472;2023-05-07T03:46:54;98008.34;;;14.31;82.46
9822;BME280;4950;46.042;14.472;2023-05-07T03:49:21;98011.13;;;14.29;82.06
9822;BME280;4950;46.042;14.472;2023-05-07T03:51:48;98010.50;;;14.20;82.14
9822;BME280;4950;46.042;14.472;2023-05-07T03:54:14;98020.34;;;14.18;82.33
9822;BME280;4950;46.042;14.472;2023-05-07T03:56:43;98019.13;;;14.14;82.73
9822;BME280;4950;46.042;14.472;2023-05-07T03:59:14;98020.91;;;14.14;82.64
9822;BME280;4950;46.042;14.472;2023-05-07T04:01:41;98025.31;;;14.13;82.74
9822;BME280;4950;46.042;14.472;2023-05-07T04:04:07;98027.16;;;14.13;82.56
9822;BME280;4950;46.042;14.472;2023-05-07T04:06:34;98026.97;;;14.14;82.47
9822;BME280;4950;46.042;14.472;2023-05-07T04:09:01;98031.78;;;14.17;81.83
9822;BME280;4950;46.042;14.472;2023-05-07T04:11:27;98028.56;;;14.15;81.80
9822;BME280;4950;46.042;14.472;2023-05-07T04:13:54;98028.94;;;14.12;82.49
9822;BME280;4950;46.042;14.472;2023-05-07T04:16:22;98030.38;;;14.15;82.38
9822;BME280;4950;46.042;14.472;2023-05-07T04:18:49;98027.94;;;14.13;82.36
9822;BME280;4950;46.042;14.472;2023-05-07T04:21:16;98033.78;;;14.15;82.38
9822;BME280;4950;46.042;14.472;2023-05-07T04:23:43;98040.63;;;14.16;82.50
9822;BME280;4950;46.042;14.472;2023-05-07T04:26:10;98038.38;;;14.13;83.11
9822;BME280;4950;46.042;14.472;2023-05-07T04:28:37;98039.00;;;14.15;83.15
9822;BME280;4950;46.042;14.472;2023-05-07T04:31:04;98036.81;;;14.19;83.23
9822;BME280;4950;46.042;14.472;2023-05-07T04:33:32;98034.38;;;14.17;83.28
9822;BME280;4950;46.042;14.472;2023-05-07T04:36:01;98039.59;;;14.17;83.24
9822;BME280;4950;46.042;14.472;2023-05-07T04:38:29;98040.63;;;14.16;83.41
9822;BME280;4950;46.042;14.472;2023-05-07T04:40:55;98036.38;;;14.15;83.78
9822;BME280;4950;46.042;14.472;2023-05-07T04:43:23;98040.44;;;14.18;84.04
9822;BME280;4950;46.042;14.472;2023-05-07T04:45:50;98047.88;;;14.21;84.00
9822;BME280;4950;46.042;14.472;2023-05-07T04:48:17;98038.84;;;14.23;83.97
9822;BME280;4950;46.042;14.472;2023-05-07T04:50:47;98034.63;;;14.22;84.50
9822;BME280;4950;46.042;14.472;2023-05-07T04:53:13;98039.47;;;14.26;84.12
9822;BME280;4950;46.042;14.472;2023-05-07T04:55:40;98039.47;;;14.26;84.58
9822;BME280;4950;46.042;14.472;2023-05-07T04:58:07;98038.88;;;14.30;84.99
9822;BME280;4950;46.042;14.472;2023-05-07T05:00:34;98042.69;;;14.28;85.23
9822;BME280;4950;46.042;14.472;2023-05-07T05:03:00;98042.47;;;14.29;85.26
9822;BME280;4950;46.042;14.472;2023-05-07T05:05:27;98037.88;;;14.31;85.63
9822;BME280;4950;46.042;14.472;2023-05-07T05:07:55;98050.34;;;14.36;85.64
9822;BME280;4950;46.042;14.472;2023-05-07T05:10:22;98041.13;;;14.40;85.94
9822;BME280;4950;46.042;14.472;2023-05-07T05:12:48;98045.94;;;14.43;85.75
9822;BME280;4950;46.042;14.472;2023-05-07T05:15:15;98041.56;;;14.44;86.15
9822;BME280;4950;46.042;14.472;2023-05-07T05:17:41;98054.44;;;14.45;86.11
9822;BME280;4950;46.042;14.472;2023-05-07T05:20:08;98052.44;;;14.47;86.04
9822;BME280;4950;46.042;14.472;2023-05-07T05:22:36;98043.81;;;14.53;86.14
9822;BME280;4950;46.042;14.472;2023-05-07T05:25:04;98048.19;;;14.53;86.63
9822;BME280;4950;46.042;14.472;2023-05-07T05:27:31;98050.63;;;14.48;87.05
9822;BME280;4950;46.042;14.472;2023-05-07T05:29:58;98039.38;;;14.47;87.64
9822;BME280;4950;46.042;14.472;2023-05-07T05:32:24;98040.78;;;14.50;87.67
9822;BME280;4950;46.042;14.472;2023-05-07T05:34:51;98041.81;;;14.55;87.20
9822;BME280;4950;46.042;14.472;2023-05-07T05:37:18;98045.06;;;14.57;87.49
9822;BME280;4950;46.042;14.472;2023-05-07T05:39:45;98046.66;;;14.58;87.20
9822;BME280;4950;46.042;14.472;2023-05-07T05:42:14;98044.47;;;14.62;87.26
9822;BME280;4950;46.042;14.472;2023-05-07T05:44:40;98050.28;;;14.57;87.09
9822;BME280;4950;46.042;14.472;2023-05-07T05:47:07;98052.91;;;14.64;87.15
9822;BME280;4950;46.042;14.472;2023-05-07T05:49:34;98053.34;;;14.74;86.26
9822;BME280;4950;46.042;14.472;2023-05-07T05:52:01;98054.97;;;14.75;86.66
9822;BME280;4950;46.042;14.472;2023-05-07T05:54:28;98053.13;;;14.76;87.16
9822;BME280;4950;46.042;14.472;2023-05-07T05:56:55;98056.59;;;14.83;87.38
9822;BME280;4950;46.042;14.472;2023-05-07T05:59:23;98047.34;;;14.80;86.74
9822;BME280;4950;46.042;14.472;2023-05-07T06:01:50;98045.13;;;14.77;86.79
9822;BME280;4950;46.042;14.472;2023-05-07T06:04:16;98044.91;;;14.79;87.13
9822;BME280;4950;46.042;14.472;2023-05-07T06:06:43;98043.09;;;14.79;86.94
9822;BME280;4950;46.042;14.472;2023-05-07T06:09:09;98047.94;;;14.89;87.15
9822;BME280;4950;46.042;14.472;2023-05-07T06:11:36;98046.13;;;14.90;86.70
9822;BME280;4950;46.042;14.472;2023-05-07T06:14:03;98041.75;;;14.97;86.73
9822;BME280;4950;46.042;14.472;2023-05-07T06:16:31;98040.16;;;15.03;86.40
9822;BME280;4950;46.042;14.472;2023-05-07T06:18:57;98048.22;;;15.08;86.23
9822;BME280;4950;46.042;14.472;2023-05-07T06:21:24;98048.81;;;15.16;85.88
9822;BME280;4950;46.042;14.472;2023-05-07T06:23:50;98041.97;;;15.22;85.52
9822;BME280;4950;46.042;14.472;2023-05-07T06:26:17;98038.75;;;15.27;85.23
9822;BME280;4950;46.042;14.472;2023-05-07T06:28:44;98047.63;;;15.32;85.18
9822;BME280;4950;46.042;14.472;2023-05-07T06:31:11;98043.59;;;15.36;85.09
9822;BME280;4950;46.042;14.472;2023-05-07T06:33:40;98043.41;;;15.38;85.54
9822;BME280;4950;46.042;14.472;2023-05-07T06:36:07;98047.41;;;15.40;85.12
9822;BME280;4950;46.042;14.472;2023-05-07T06:38:33;98047.84;;;15.51;84.62
9822;BME280;4950;46.042;14.472;2023-05-07T06:41:00;98045.19;;;15.64;83.59
9822;BME280;4950;46.042;14.472;2023-05-07T06:43:27;98044.41;;;15.70;83.77
9822;BME280;4950;46.042;14.472;2023-05-07T06:45:54;98040.59;;;15.79;82.80
9822;BME280;4950;46.042;14.472;2023-05-07T06:48:20;98035.34;;;15.79;83.07
9822;BME280;4950;46.042;14.472;2023-05-07T06:50:48;98032.72;;;15.79;83.23
9822;BME280;4950;46.042;14.472;2023-05-07T06:53:15;98033.75;;;15.78;82.98
9822;BME280;4950;46.042;14.472;2023-05-07T06:55:41;98033.94;;;15.84;82.87
9822;BME280;4950;46.042;14.472;2023-05-07T06:58:08;98046.03;;;15.85;82.88
9822;BME280;4950;46.042;14.472;2023-05-07T07:00:34;98036.75;;;15.89;82.75
9822;BME280;4950;46.042;14.472;2023-05-07T07:03:01;98036.56;;;15.90;82.62
9822;BME280;4950;46.042;14.472;2023-05-07T07:05:28;98025.84;;;15.98;82.41
9822;BME280;4950;46.042;14.472;2023-05-07T07:07:56;98023.03;;;16.00;82.06
9822;BME280;4950;46.042;14.472;2023-05-07T07:10:22;98022.81;;;16.08;81.49
9822;BME280;4950;46.042;14.472;2023-05-07T07:12:50;98024.00;;;16.19;81.61
9822;BME280;4950;46.042;14.472;2023-05-07T07:15:17;98029.00;;;16.27;81.51
9822;BME280;4950;46.042;14.472;2023-05-07T07:17:45;98027.38;;;16.33;81.30
9822;BME280;4950;46.042;14.472;2023-05-07T07:20:12;98029.78;;;16.34;80.89
9822;BME280;4950;46.042;14.472;2023-05-07T07:22:39;98023.88;;;16.46;79.54
9822;BME280;4950;46.042;14.472;2023-05-07T07:25:08;98020.88;;;16.42;79.71
9822;BME280;4950;46.042;14.472;2023-05-07T07:27:34;98014.59;;;16.50;80.17
9822;BME280;4950;46.042;14.472;2023-05-07T07:30:01;98020.38;;;16.65;79.29
9822;BME280;4950;46.042;14.472;2023-05-07T07:32:28;98013.88;;;16.74;79.22
9822;BME280;4950;46.042;14.472;2023-05-07T07:34:54;98015.47;;;16.75;79.28
9822;BME280;4950;46.042;14.472;2023-05-07T07:37:21;98016.88;;;16.78;79.10
9822;BME280;4950;46.042;14.472;2023-05-07T07:39:47;98019.50;;;16.78;79.14
9822;BME280;4950;46.042;14.472;2023-05-07T07:42:17;98009.78;;;16.85;79.68
9822;BME280;4950;46.042;14.472;2023-05-07T07:44:44;98019.00;;;17.01;78.67
9822;BME280;4950;46.042;14.472;2023-05-07T07:47:11;98017.16;;;17.02;78.46
9822;BME280;4950;46.042;14.472;2023-05-07T07:49:37;98011.94;;;17.02;78.32
9822;BME280;4950;46.042;14.472;2023-05-07T07:52:04;98012.31;;;17.05;78.43
9822;BME280;4950;46.042;14.472;2023-05-07T07:54:30;98015.47;;;17.14;78.52
9822;BME280;4950;46.042;14.472;2023-05-07T07:56:57;98015.38;;;17.27;78.12
9822;BME280;4950;46.042;14.472;2023-05-07T07:59:25;98015.38;;;17.27;76.76
9822;BME280;4950;46.042;14.472;2023-05-07T08:01:52;98011.31;;;17.31;77.00
9822;BME280;4950;46.042;14.472;2023-05-07T08:04:20;98010.03;;;17.41;77.19
9822;BME280;4950;46.042;14.472;2023-05-07T08:06:47;98005.28;;;17.49;77.05
9822;BME280;4950;46.042;14.472;2023-05-07T08:09:14;98006.13;;;17.68;74.85
9822;BME280;4950;46.042;14.472;2023-05-07T08:11:40;98001.78;;;17.81;74.45
9822;BME280;4950;46.042;14.472;2023-05-07T08:14:07;98010.63;;;17.86;73.44
9822;BME280;4950;46.042;14.472;2023-05-07T08:16:35;98010.59;;;17.93;73.53
9822;BME280;4950;46.042;14.472;2023-05-07T08:19:04;98005.84;;;18.02;73.36
9822;BME280;4950;46.042;14.472;2023-05-07T08:21:30;98004.75;;;18.09;73.79
9822;BME280;4950;46.042;14.472;2023-05-07T08:23:57;98004.81;;;18.21;72.79
9822;BME280;4950;46.042;14.472;2023-05-07T08:26:24;98001.34;;;18.39;72.71
9822;BME280;4950;46.042;14.472;2023-05-07T08:28:51;98006.13;;;18.61;71.93
9822;BME280;4950;46.042;14.472;2023-05-07T08:31:17;98005.38;;;18.90;68.81
9822;BME280;4950;46.042;14.472;2023-05-07T08:33:45;98005.94;;;18.92;67.64
9822;BME280;4950;46.042;14.472;2023-05-07T08:36:12;98000.91;;;18.91;68.66
9822;BME280;4950;46.042;14.472;2023-05-07T08:38:38;98012.47;;;19.02;66.96
9822;BME280;4950;46.042;14.472;2023-05-07T08:41:09;98007.34;;;19.07;67.22
9822;BME280;4950;46.042;14.472;2023-05-07T08:43:37;98001.16;;;19.01;66.50
9822;BME280;4950;46.042;14.472;2023-05-07T08:46:09;98008.25;;;19.01;66.87
9822;BME280;4950;46.042;14.472;2023-05-07T08:48:36;98008.34;;;19.06;66.75
9822;BME280;4950;46.042;14.472;2023-05-07T08:51:05;98002.66;;;19.09;66.04
9822;BME280;4950;46.042;14.472;2023-05-07T08:53:31;97992.84;;;19.28;63.61
9822;BME280;4950;46.042;14.472;2023-05-07T08:55:59;97998.56;;;19.37;63.49
9822;BME280;4950;46.042;14.472;2023-05-07T08:58:26;97992.16;;;19.32;63.75
9822;BME280;4950;46.042;14.472;2023-05-07T09:00:52;97986.09;;;19.44;63.67
9822;BME280;4950;46.042;14.472;2023-05-07T09:03:20;97982.78;;;19.60;64.22
9822;BME280;4950;46.042;14.472;2023-05-07T09:05:47;97983.03;;;19.82;63.50
9822;BME280;4950;46.042;14.472;2023-05-07T09:08:15;97983.44;;;20.03;62.65
9822;BME280;4950;46.042;14.472;2023-05-07T09:10:42;97981.72;;;20.08;63.28
9822;BME280;4950;46.042;14.472;2023-05-07T09:13:08;97975.06;;;20.18;63.52
9822;BME280;4950;46.042;14.472;2023-05-07T09:15:38;97979.56;;;20.34;62.00
9822;BME280;4950;46.042;14.472;2023-05-07T09:18:04;97976.56;;;20.42;63.15
9822;BME280;4950;46.042;14.472;2023-05-07T09:20:31;97979.63;;;20.51;61.46
9822;BME280;4950;46.042;14.472;2023-05-07T09:22:58;97974.00;;;20.59;61.76
9822;BME280;4950;46.042;14.472;2023-05-07T09:25:30;97970.66;;;20.64;62.15
9822;BME280;4950;46.042;14.472;2023-05-07T09:27:57;97966.03;;;20.71;61.39
9822;BME280;4950;46.042;14.472;2023-05-07T09:30:27;97962.69;;;20.76;60.67
9822;BME280;4950;46.042;14.472;2023-05-07T09:32:54;97953.34;;;20.85;60.61
9822;BME280;4950;46.042;14.472;2023-05-07T09:35:20;97956.69;;;20.97;60.11
9822;BME280;4950;46.042;14.472;2023-05-07T09:37:49;97950.22;;;21.05;59.36
9822;BME280;4950;46.042;14.472;2023-05-07T09:40:23;97957.41;;;21.26;58.63
9822;BME280;4950;46.042;14.472;2023-05-07T09:42:51;97950.38;;;21.32;58.95
9822;BME280;4950;46.042;14.472;2023-05-07T09:45:21;97953.34;;;21.36;59.08
9822;BME280;4950;46.042;14.472;2023-05-07T09:47:49;97949.16;;;21.40;59.07
9822;BME280;4950;46.042;14.472;2023-05-07T09:50:22;97954.63;;;21.50;59.36
9822;BME280;4950;46.042;14.472;2023-05-07T09:52:52;97945.25;;;21.59;57.72
9822;BME280;4950;46.042;14.472;2023-05-07T09:55:19;97951.16;;;21.66;58.83
9822;BME280;4950;46.042;14.472;2023-05-07T09:57:48;97944.53;;;21.86;57.33
9822;BME280;4950;46.042;14.472;2023-05-07T10:00:21;97942.13;;;22.06;56.21
9822;BME280;4950;46.042;14.472;2023-05-07T10:02:49;97941.72;;;22.15;57.10
9822;BME280;4950;46.042;14.472;2023-05-07T10:05:17;97942.06;;;22.23;57.15
9822;BME280;4950;46.042;14.472;2023-05-07T10:07:44;97936.75;;;22.45;53.87
9822;BME280;4950;46.042;14.472;2023-05-07T10:10:12;97941.34;;;22.55;54.69
9822;BME280;4950;46.042;14.472;2023-05-07T10:12:40;97944.34;;;22.64;53.67
9822;BME280;4950;46.042;14.472;2023-05-07T10:15:08;97938.66;;;22.77;52.64
9822;BME280;4950;46.042;14.472;2023-05-07T10:17:38;97934.94;;;22.78;53.71
9822;BME280;4950;46.042;14.472;2023-05-07T10:20:05;97933.44;;;22.93;54.65
9822;BME280;4950;46.042;14.472;2023-05-07T10:22:37;97934.56;;;22.97;54.18
9822;BME280;4950;46.042;14.472;2023-05-07T10:25:06;97935.97;;;23.04;54.14
9822;BME280;4950;46.042;14.472;2023-05-07T10:27:36;97931.78;;;23.14;53.05
9822;BME280;4950;46.042;14.472;2023-05-07T10:30:14;97923.13;;;23.23;51.44
9822;BME280;4950;46.042;14.472;2023-05-07T10:32:47;97916.25;;;23.27;52.70
9822;BME280;4950;46.042;14.472;2023-05-07T10:35:18;97917.63;;;23.35;52.41
9822;BME280;4950;46.042;14.472;2023-05-07T10:37:45;97921.41;;;23.44;51.52
9822;BME280;4950;46.042;14.472;2023-05-07T10:40:13;97918.78;;;23.55;49.78
9822;BME280;4950;46.042;14.472;2023-05-07T10:42:53;97909.56;;;23.57;49.61
9822;BME280;4950;46.042;14.472;2023-05-07T10:45:21;97912.81;;;23.75;49.88
9822;BME280;4950;46.042;14.472;2023-05-07T10:48:07;97912.88;;;23.85;48.62
9822;BME280;4950;46.042;14.472;2023-05-07T10:50:37;97904.38;;;23.88;49.72
9822;BME280;4950;46.042;14.472;2023-05-07T10:53:24;97897.25;;;23.89;46.55
9822;BME280;4950;46.042;14.472;2023-05-07T10:56:26;97903.34;;;23.94;47.38
9822;BME280;4950;46.042;14.472;2023-05-07T10:58:53;97901.53;;;24.05;46.54
9822;BME280;4950;46.042;14.472;2023-05-07T11:01:50;97897.56;;;24.02;47.94
9822;BME280;4950;46.042;14.472;2023-05-07T11:04:19;97889.31;;;24.04;46.66
9822;BME280;4950;46.042;14.472;2023-05-07T11:10:05;97884.28;;;24.08;45.09
9822;BME280;4950;46.042;14.472;2023-05-07T11:12:52;97884.34;;;24.18;44.93
9822;BME280;4950;46.042;14.472;2023-05-07T11:15:42;97876.09;;;24.14;45.12
9822;BME280;4950;46.042;14.472;2023-05-07T11:18:10;97871.34;;;24.27;44.02
9822;BME280;4950;46.042;14.472;2023-05-07T11:20:52;97874.03;;;24.47;44.10
9822;BME280;4950;46.042;14.472;2023-05-07T11:26:48;97874.53;;;24.39;44.90
9822;BME280;4950;46.042;14.472;2023-05-07T11:29:18;97869.75;;;24.46;46.77
9822;BME280;4950;46.042;14.472;2023-05-07T11:31:48;97866.59;;;24.54;46.98
9822;BME280;4950;46.042;14.472;2023-05-07T11:34:21;97858.66;;;24.59;45.14
9822;BME280;4950;46.042;14.472;2023-05-07T11:36:52;97862.09;;;24.65;45.70
9822;BME280;4950;46.042;14.472;2023-05-07T11:39:27;97855.19;;;24.79;46.80
9822;BME280;4950;46.042;14.472;2023-05-07T11:41:55;97849.84;;;24.95;46.08
9822;BME280;4950;46.042;14.472;2023-05-07T11:44:22;97849.31;;;25.08;44.72
9822;BME280;4950;46.042;14.472;2023-05-07T11:46:51;97841.03;;;25.20;43.10
9822;BME280;4950;46.042;14.472;2023-05-07T11:49:18;97845.56;;;25.25;44.11
9822;BME280;4950;46.042;14.472;2023-05-07T11:51:45;97847.38;;;25.39;43.32
9822;BME280;4950;46.042;14.472;2023-05-07T11:54:15;97843.34;;;25.52;43.37
9822;BME280;4950;46.042;14.472;2023-05-07T11:56:43;97846.03;;;25.47;43.38
9822;BME280;4950;46.042;14.472;2023-05-07T11:59:11;97845.50;;;25.45;42.68
9822;BME280;4950;46.042;14.472;2023-05-07T12:01:38;97850.34;;;25.17;43.58
9822;BME280;4950;46.042;14.472;2023-05-07T12:04:04;97854.59;;;25.13;44.08
9822;BME280;4950;46.042;14.472;2023-05-07T12:06:36;97854.13;;;24.80;44.68
9822;BME280;4950;46.042;14.472;2023-05-07T12:09:02;97853.06;;;24.87;45.42
9822;BME280;4950;46.042;14.472;2023-05-07T12:11:31;97844.81;;;24.83;45.32
9822;BME280;4950;46.042;14.472;2023-05-07T12:14:01;97848.78;;;24.86;45.08
9822;BME280;4950;46.042;14.472;2023-05-07T12:16:27;97844.00;;;24.93;45.96
9822;BME280;4950;46.042;14.472;2023-05-07T12:18:55;97839.75;;;24.92;45.12
9822;BME280;4950;46.042;14.472;2023-05-07T12:21:24;97837.88;;;25.08;46.46
9822;BME280;4950;46.042;14.472;2023-05-07T12:24:02;97832.53;;;25.18;45.40
9822;BME280;4950;46.042;14.472;2023-05-07T12:26:28;97841.81;;;25.31;45.25
9822;BME280;4950;46.042;14.472;2023-05-07T12:28:57;97842.06;;;25.34;45.02
9822;BME280;4950;46.042;14.472;2023-05-07T12:31:25;97841.28;;;25.29;44.17
9822;BME280;4950;46.042;14.472;2023-05-07T12:33:52;97837.00;;;25.38;44.09
9822;BME280;4950;46.042;14.472;2023-05-07T12:36:19;97833.31;;;25.34;44.15
9822;BME280;4950;46.042;14.472;2023-05-07T12:38:49;97826.41;;;25.33;43.41
9822;BME280;4950;46.042;14.472;2023-05-07T12:41:15;97823.72;;;25.33;43.37
9822;BME280;4950;46.042;14.472;2023-05-07T12:43:44;97821.06;;;25.38;45.09
9822;BME280;4950;46.042;14.472;2023-05-07T12:46:12;97817.06;;;25.40;44.09
9822;BME280;4950;46.042;14.472;2023-05-07T12:48:43;97817.06;;;25.40;45.44
9822;BME280;4950;46.042;14.472;2023-05-07T12:51:11;97819.19;;;25.44;44.79
9822;BME280;4950;46.042;14.472;2023-05-07T12:53:40;97822.63;;;25.44;43.70
9822;BME280;4950;46.042;14.472;2023-05-07T12:56:07;97824.44;;;25.54;43.26
9822;BME280;4950;46.042;14.472;2023-05-07T12:58:34;97818.03;;;25.60;42.28
9822;BME280;4950;46.042;14.472;2023-05-07T13:01:05;97822.81;;;25.63;41.01
9822;BME280;4950;46.042;14.472;2023-05-07T13:03:35;97818.88;;;25.50;40.93
9822;BME280;4950;46.042;14.472;2023-05-07T13:06:04;97808.81;;;25.47;42.06
9822;BME280;4950;46.042;14.472;2023-05-07T13:08:32;97812.53;;;25.46;42.55
9822;BME280;4950;46.042;14.472;2023-05-07T13:11:00;97814.91;;;25.53;42.83
9822;BME280;4950;46.042;14.472;2023-05-07T13:13:29;97808.69;;;25.68;42.50
9822;BME280;4950;46.042;14.472;2023-05-07T13:15:55;97826.00;;;25.65;45.96
9822;BME280;4950;46.042;14.472;2023-05-07T13:18:23;97816.53;;;25.44;47.74
9822;BME280;4950;46.042;14.472;2023-05-07T13:20:52;97820.56;;;25.20;48.30